Time;durP1;ratioP1;P1;durP2;ratioP2;P2;SDS_P1;SDS_P2;PMS_P1;PMS_P2;Temp;Humidity;BMP_temperature;BMP_pressure;BME280_temperature;BME280_humidity;BME280_pressure;Samples;Min_cycle;Max_cycle;Signal;HPM_P1;HPM_P2
2023/09/15 00:02:28;;;;;;;5.82;2.97;;;;;;;9.83;100.00;102151.75;10312990;28;20043;-70
2023/09/15 00:07:29;;;;;;;5.60;3.88;;;;;;;9.74;100.00;102147.56;10314566;28;20046;-71
2023/09/15 00:12:30;;;;;;;5.97;3.28;;;;;;;9.69;100.00;102150.09;10314495;28;20043;-70
2023/09/15 00:17:30;;;;;;;4.60;2.90;;;;;;;9.65;100.00;102143.34;10303429;28;20043;-71
2023/09/15 00:22:31;;;;;;;6.50;4.07;;;;;;;9.63;100.00;102137.22;10313635;28;20073;-71
2023/09/15 00:27:32;;;;;;;8.52;3.80;;;;;;;9.60;100.00;102132.19;10319243;28;20049;-71
2023/09/15 00:32:32;;;;;;;7.43;4.10;;;;;;;9.52;100.00;102133.25;10320080;28;20043;-71
2023/09/15 00:37:33;;;;;;;11.13;3.40;;;;;;;9.57;100.00;102138.09;10324082;28;20042;-71
2023/09/15 00:42:33;;;;;;;10.00;3.90;;;;;;;9.52;100.00;102136.00;10305226;28;20062;-71
2023/09/15 00:47:34;;;;;;;6.75;3.90;;;;;;;9.45;100.00;102136.03;10322372;28;20379;-70
2023/09/15 00:52:34;;;;;;;11.15;3.67;;;;;;;9.34;100.00;102125.69;10317032;28;20137;-71
2023/09/15 00:57:37;;;;;;;10.23;4.50;;;;;;;8.62;100.00;102015.78;10323908;28;20092;-71
2023/09/15 01:02:42;;;;;;;6.63;4.28;;;;;;;9.33;100.00;102117.69;10308422;28;20510;-71
2023/09/15 01:07:42;;;;;;;7.90;4.18;;;;;;;9.25;100.00;102110.50;10310328;28;20094;-72
2023/09/15 01:12:43;;;;;;;9.07;4.53;;;;;;;9.28;100.00;102118.28;10287646;28;20074;-71
2023/09/15 01:17:50;;;;;;;9.65;5.55;;;;;;;9.29;100.00;102117.25;10316293;28;20042;-71
2023/09/15 01:23:18;;;;;;;9.32;4.90;;;;;;;9.28;100.00;102115.53;10317618;28;20043;-71
2023/09/15 01:28:42;;;;;;;7.93;5.03;;;;;;;9.30;100.00;102107.94;10311799;28;20047;-71
2023/09/15 01:33:42;;;;;;;9.63;4.93;;;;;;;9.24;100.00;102086.81;10310173;28;20043;-71
2023/09/15 01:38:43;;;;;;;9.50;4.63;;;;;;;9.25;100.00;102099.50;10299394;28;20042;-71
2023/09/15 01:43:43;;;;;;;8.43;4.60;;;;;;;9.17;100.00;102097.00;10312491;28;20042;-71
2023/09/15 01:48:44;;;;;;;11.15;5.28;;;;;;;9.04;100.00;102084.97;10319274;28;20045;-71
2023/09/15 01:53:44;;;;;;;11.77;5.47;;;;;;;9.12;100.00;102094.06;10293737;28;20046;-72
2023/09/15 01:58:45;;;;;;;9.60;5.13;;;;;;;9.06;100.00;102096.59;10320278;28;20049;-71
2023/09/15 02:03:46;;;;;;;7.03;4.93;;;;;;;9.00;100.00;102089.22;10317214;28;20042;-71
2023/09/15 02:08:46;;;;;;;9.82;5.80;;;;;;;8.95;100.00;102089.00;10321366;28;20065;-71
2023/09/15 02:13:47;;;;;;;11.43;6.22;;;;;;;8.94;100.00;102084.56;10308166;28;20131;-71
2023/09/15 02:18:47;;;;;;;10.43;5.82;;;;;;;8.85;100.00;102081.22;10320641;28;20038;-70
2023/09/15 02:23:47;;;;;;;11.43;6.57;;;;;;;8.79;100.00;102083.97;10316461;28;20050;-71
2023/09/15 02:28:49;;;;;;;12.10;6.40;;;;;;;8.75;100.00;102074.47;10320434;28;20035;-72
2023/09/15 02:33:50;;;;;;;9.82;7.05;;;;;;;8.68;100.00;102067.06;10300460;28;20046;-71
2023/09/15 02:38:54;;;;;;;10.18;6.75;;;;;;;8.65;100.00;102074.88;10304485;28;20038;-71
2023/09/15 02:43:54;;;;;;;8.52;6.50;;;;;;;8.65;100.00;102067.50;10304658;28;20125;-71
2023/09/15 02:48:56;;;;;;;12.27;8.05;;;;;;;8.62;100.00;102062.44;10316704;28;20050;-71
2023/09/15 02:53:56;;;;;;;11.05;8.43;;;;;;;8.65;100.00;102066.66;10316913;28;20068;-71
2023/09/15 02:58:57;;;;;;;15.75;7.82;;;;;;;8.68;100.00;102061.59;10318789;28;20264;-71
2023/09/15 03:03:57;;;;;;;11.77;7.95;;;;;;;8.66;100.00;102057.34;10316928;28;20034;-71
2023/09/15 03:08:59;;;;;;;12.20;7.20;;;;;;;8.60;100.00;102059.06;10319068;28;20108;-71
2023/09/15 03:14:00;;;;;;;14.45;8.63;;;;;;;8.57;100.00;102051.22;10311897;28;20045;-71
2023/09/15 03:19:00;;;;;;;10.75;8.25;;;;;;;8.51;100.00;102048.50;10297753;28;20039;-71
2023/09/15 03:24:01;;;;;;;11.65;8.15;;;;;;;8.46;100.00;102047.22;10318037;28;20045;-72
2023/09/15 03:29:01;;;;;;;18.00;8.27;;;;;;;8.39;100.00;102048.25;10312972;28;20047;-71
2023/09/15 03:34:02;;;;;;;12.70;8.85;;;;;;;8.33;100.00;102040.84;10320339;28;20053;-71
2023/09/15 03:39:03;;;;;;;12.88;8.52;;;;;;;8.31;100.00;102042.97;10313837;28;20105;-71
2023/09/15 03:44:04;;;;;;;12.57;8.13;;;;;;;8.26;100.00;102038.13;10310751;28;20073;-71
2023/09/15 03:49:05;;;;;;;12.60;9.05;;;;;;;8.23;100.00;102042.13;10305415;28;20043;-69
2023/09/15 03:54:05;;;;;;;15.45;9.40;;;;;;;8.24;100.00;102032.00;10312815;28;20057;-72
2023/09/15 03:59:06;;;;;;;13.32;9.38;;;;;;;8.26;100.00;102025.25;10315506;28;20049;-70
2023/09/15 04:04:07;;;;;;;14.05;9.02;;;;;;;8.27;100.00;102032.44;10313497;28;20042;-71
2023/09/15 04:09:12;;;;;;;14.75;10.10;;;;;;;8.29;100.00;102029.47;10313516;28;20062;-71
2023/09/15 04:14:12;;;;;;;17.80;9.90;;;;;;;8.26;100.00;102030.72;10316010;28;20050;-72
2023/09/15 04:19:12;;;;;;;15.98;10.95;;;;;;;8.27;100.00;102035.16;10313050;28;20039;-71
2023/09/15 04:24:13;;;;;;;18.95;10.38;;;;;;;8.27;100.00;102035.16;10316608;28;20049;-71
2023/09/15 04:29:13;;;;;;;14.93;9.68;;;;;;;8.23;100.00;102041.31;10311992;28;20086;-71
2023/09/15 04:34:14;;;;;;;14.55;9.90;;;;;;;8.11;100.00;102021.03;10317859;28;20045;-71
2023/09/15 04:39:15;;;;;;;15.30;9.77;;;;;;;8.13;100.00;102027.16;10303793;28;20045;-71
2023/09/15 04:44:15;;;;;;;19.00;10.98;;;;;;;8.14;100.00;102023.34;10309936;28;20043;-71
2023/09/15 04:49:16;;;;;;;21.27;11.85;;;;;;;8.16;100.00;102021.22;10317155;28;20047;-71
2023/09/15 04:54:16;;;;;;;16.02;11.45;;;;;;;8.13;100.00;102017.03;10311257;28;20043;-71
2023/09/15 04:59:17;;;;;;;19.15;11.68;;;;;;;8.14;100.00;102037.91;10314566;28;20030;-69
2023/09/15 05:04:19;;;;;;;24.88;14.35;;;;;;;8.14;100.00;102021.44;10304489;28;20046;-71
2023/09/15 05:09:20;;;;;;;21.17;12.48;;;;;;;8.19;100.00;102027.16;10308367;28;20522;-71
2023/09/15 05:14:22;;;;;;;20.63;12.88;;;;;;;8.23;100.00;102031.16;10317800;28;20042;-71
2023/09/15 05:19:23;;;;;;;19.38;11.98;;;;;;;8.25;100.00;102028.22;10320521;28;20090;-71
2023/09/15 05:24:24;;;;;;;21.55;12.57;;;;;;;8.28;100.00;102038.75;10318961;28;20061;-71
2023/09/15 05:29:25;;;;;;;19.88;12.93;;;;;;;8.31;100.00;102037.47;10320562;28;20046;-71
2023/09/15 05:34:25;;;;;;;19.48;12.48;;;;;;;8.26;100.00;102024.41;10318298;28;20039;-71
2023/09/15 05:39:25;;;;;;;26.23;14.13;;;;;;;8.38;100.00;102039.19;10319979;28;20046;-71
2023/09/15 05:44:26;;;;;;;22.90;14.18;;;;;;;8.48;100.00;102047.03;10312284;28;20043;-71
2023/09/15 05:49:27;;;;;;;20.40;12.95;;;;;;;8.56;100.00;102041.31;10322550;28;20042;-71
2023/09/15 05:54:27;;;;;;;21.42;12.45;;;;;;;8.67;100.00;102042.56;10306302;28;20138;-71
2023/09/15 05:59:28;;;;;;;19.15;12.18;;;;;;;8.75;100.00;102038.78;10315676;28;20043;-72
2023/09/15 06:04:29;;;;;;;17.98;12.10;;;;;;;8.82;100.00;102039.59;10315399;28;20041;-71
2023/09/15 06:09:29;;;;;;;20.20;11.32;;;;;;;8.94;100.00;102032.38;10318189;28;20035;-71
2023/09/15 06:14:30;;;;;;;15.15;10.40;;;;;;;8.87;100.00;101987.63;10318606;28;20050;-71
2023/09/15 06:19:30;;;;;;;18.63;11.90;;;;;;;9.52;100.00;102041.69;10316612;28;20069;-72
2023/09/15 06:24:31;;;;;;;16.30;10.40;;;;;;;9.84;100.00;102043.44;10299757;28;20105;-70
2023/09/15 06:29:31;;;;;;;14.00;9.75;;;;;;;10.14;100.00;102042.78;10316201;28;20511;-72
2023/09/15 06:34:31;;;;;;;12.35;8.35;;;;;;;10.43;100.00;102037.72;10311493;28;20601;-71
2023/09/15 06:39:34;;;;;;;14.10;9.68;;;;;;;10.64;100.00;102042.81;10317328;28;20446;-72
2023/09/15 06:44:34;;;;;;;13.93;9.80;;;;;;;10.85;100.00;102048.97;10314645;28;20069;-71
2023/09/15 06:49:35;;;;;;;14.52;8.80;;;;;;;10.64;100.00;101982.22;10312712;28;20050;-72
2023/09/15 06:54:35;;;;;;;18.55;9.27;;;;;;;11.17;100.00;102038.69;10320033;28;20038;-71
2023/09/15 06:59:36;;;;;;;13.70;7.45;;;;;;;11.36;100.00;102042.25;10312343;28;20043;-71
2023/09/15 07:04:36;;;;;;;11.68;7.20;;;;;;;11.52;100.00;102038.03;10304622;28;20039;-71
2023/09/15 07:09:37;;;;;;;16.63;7.88;;;;;;;11.68;100.00;102036.56;10314500;28;20042;-71
2023/09/15 07:14:37;;;;;;;16.52;8.00;;;;;;;11.83;100.00;102034.22;10318102;28;20529;-71
2023/09/15 07:19:38;;;;;;;13.38;7.45;;;;;;;12.00;100.00;102033.59;10296051;28;20043;-71
2023/09/15 07:24:41;;;;;;;10.27;7.10;;;;;;;12.15;100.00;102038.66;10316921;28;20081;-71
2023/09/15 07:29:42;;;;;;;11.25;6.28;;;;;;;12.29;100.00;102040.97;10311015;28;20082;-71
2023/09/15 07:34:42;;;;;;;11.43;6.13;;;;;;;12.44;100.00;102028.63;10300002;28;20050;-71
2023/09/15 07:39:43;;;;;;;10.98;6.07;;;;;;;12.54;100.00;102017.81;10314344;28;20485;-72
2023/09/15 07:44:45;;;;;;;20.50;8.27;;;;;;;12.64;100.00;102023.59;10315318;28;20042;-72
2023/09/15 07:49:45;;;;;;;11.88;5.25;;;;;;;12.79;100.00;102016.72;10313219;28;20086;-71
2023/09/15 07:54:46;;;;;;;10.90;5.65;;;;;;;12.87;100.00;102021.91;10313175;28;20097;-71
2023/09/15 07:59:46;;;;;;;10.52;6.30;;;;;;;12.96;100.00;102017.69;10318159;28;20049;-71
2023/09/15 08:04:47;;;;;;;15.18;7.53;;;;;;;13.09;100.00;102009.13;10296621;28;20038;-72
2023/09/15 08:09:47;;;;;;;8.40;5.50;;;;;;;13.23;100.00;102006.06;10277113;28;20054;-71
2023/09/15 08:14:49;;;;;;;13.65;5.82;;;;;;;13.39;100.00;102002.56;10300791;28;20123;-72
2023/09/15 08:19:49;;;;;;;7.85;5.00;;;;;;;13.57;100.00;101998.78;10295329;28;20047;-71
2023/09/15 08:24:50;;;;;;;8.45;5.13;;;;;;;13.48;100.00;101961.56;10299261;28;20506;-71
2023/09/15 08:29:51;;;;;;;13.50;5.05;;;;;;;13.99;100.00;101992.06;10296702;28;20039;-72
2023/09/15 08:34:53;;;;;;;8.77;4.18;;;;;;;14.29;100.00;101989.81;10301352;28;20046;-71
2023/09/15 08:39:54;;;;;;;6.57;3.80;;;;;;;14.60;100.00;101986.75;10287564;28;20049;-72
2023/09/15 08:44:56;;;;;;;8.52;4.00;;;;;;;14.84;100.00;101967.94;10299008;28;20161;-72
2023/09/15 08:49:56;;;;;;;9.70;4.15;;;;;;;15.23;100.00;101976.22;10309718;28;20066;-71
2023/09/15 08:54:57;;;;;;;6.68;3.75;;;;;;;15.61;100.00;101977.22;10320765;28;20089;-71
2023/09/15 08:59:57;;;;;;;7.63;4.97;;;;;;;15.96;100.00;101971.19;10321016;28;20042;-71
2023/09/15 09:04:58;;;;;;;5.93;3.25;;;;;;;16.34;100.00;101963.72;10312805;28;20078;-73
2023/09/15 09:09:58;;;;;;;7.05;3.50;;;;;;;16.69;100.00;101960.34;10297977;28;20043;-72
2023/09/15 09:15:00;;;;;;;6.35;3.13;;;;;;;16.98;100.00;101957.19;10314011;28;20043;-72
2023/09/15 09:20:01;;;;;;;4.95;3.33;;;;;;;17.18;100.00;101947.22;10323152;28;20073;-77
2023/09/15 09:25:01;;;;;;;7.20;3.03;;;;;;;17.47;100.00;101945.66;10317390;28;20074;-71
2023/09/15 09:30:03;;;;;;;6.47;3.13;;;;;;;17.55;100.00;101947.91;10308733;28;20066;-71
2023/09/15 09:35:03;;;;;;;7.70;3.65;;;;;;;17.84;100.00;101950.22;10321038;28;20061;-71
2023/09/15 09:40:06;;;;;;;7.18;2.50;;;;;;;18.05;100.00;101936.31;10313418;28;20054;-72
2023/09/15 09:45:07;;;;;;;4.53;3.17;;;;;;;18.29;100.00;101937.41;10283133;28;20043;-71
2023/09/15 09:50:09;;;;;;;7.15;2.53;;;;;;;18.46;100.00;101920.34;10318909;28;20046;-71
2023/09/15 09:55:10;;;;;;;7.57;4.22;;;;;;;18.68;100.00;101910.81;10317566;28;20050;-70
2023/09/15 10:00:11;;;;;;;6.28;2.80;;;;;;;18.75;100.00;101883.47;10318507;28;20053;-71
2023/09/15 10:05:11;;;;;;;9.02;3.28;;;;;;;19.02;100.00;101894.25;10316492;28;20049;-71
2023/09/15 10:10:12;;;;;;;6.68;3.55;;;;;;;19.17;100.00;101896.13;10285947;28;20039;-70
2023/09/15 10:15:12;;;;;;;9.43;3.20;;;;;;;19.32;100.00;101875.63;10277716;28;20057;-71
2023/09/15 10:20:13;;;;;;;5.43;3.30;;;;;;;19.73;100.00;101884.59;10319060;28;20034;-70
2023/09/15 10:25:21;;;;;;;7.13;2.60;;;;;;;20.04;100.00;101866.72;10316416;28;20043;-71
2023/09/15 10:30:22;;;;;;;10.50;3.42;;;;;;;20.30;100.00;101865.34;10312830;28;20046;-71
2023/09/15 10:35:22;;;;;;;3.80;2.25;;;;;;;20.44;100.00;101864.63;10310061;28;20574;-71
2023/09/15 10:40:23;;;;;;;7.13;3.10;;;;;;;20.65;100.00;101863.28;10294976;28;20118;-70
2023/09/15 10:45:27;;;;;;;6.22;2.25;;;;;;;20.72;100.00;101851.72;10318591;28;20035;-71
2023/09/15 10:50:30;;;;;;;10.18;4.20;;;;;;;20.86;100.00;101840.66;10311339;28;20049;-71
2023/09/15 10:55:31;;;;;;;6.38;2.40;;;;;;;20.90;100.00;101841.72;10301014;28;20111;-71
2023/09/15 11:00:32;;;;;;;4.13;2.13;;;;;;;20.93;100.00;101824.28;10301695;28;20058;-70
2023/09/15 11:05:32;;;;;;;4.85;2.80;;;;;;;21.12;100.00;101822.31;10310096;28;21362;-71
2023/09/15 11:10:33;;;;;;;6.13;2.25;;;;;;;21.22;100.00;101835.34;10309815;28;20056;-70
2023/09/15 11:15:33;;;;;;;5.05;1.65;;;;;;;21.50;100.00;101816.72;10301416;28;20102;-70
2023/09/15 11:20:34;;;;;;;4.78;2.13;;;;;;;21.72;100.00;101801.22;10318914;28;20038;-70
2023/09/15 11:25:35;;;;;;;3.90;1.60;;;;;;;21.95;100.00;101803.06;10302499;28;20050;-70
2023/09/15 11:30:36;;;;;;;7.70;2.35;;;;;;;22.03;100.00;101795.03;10297412;28;20034;-71
2023/09/15 11:35:36;;;;;;;5.07;1.80;;;;;;;21.96;100.00;101795.47;10263822;28;20049;-70
2023/09/15 11:40:36;;;;;;;3.75;2.00;;;;;;;22.27;100.00;101784.50;10278051;28;20066;-70
2023/09/15 11:45:37;;;;;;;4.38;1.60;;;;;;;22.36;100.00;101784.59;10272724;28;20035;-70
2023/09/15 11:50:37;;;;;;;5.47;2.50;;;;;;;22.60;100.00;101775.97;10268380;28;20043;-70
2023/09/15 11:55:39;;;;;;;8.07;1.80;;;;;;;22.89;100.00;101755.09;10266443;28;20062;-70
2023/09/15 12:00:40;;;;;;;6.20;2.50;;;;;;;23.75;100.00;101754.91;10247877;28;20051;-71
2023/09/15 12:05:40;;;;;;;8.32;2.15;;;;;;;24.85;100.00;101745.84;10255193;28;20576;-70
2023/09/15 12:10:42;;;;;;;4.20;2.25;;;;;;;25.46;98.02;101729.72;10271132;28;20144;-71
2023/09/15 12:15:45;;;;;;;5.10;1.80;;;;;;;25.70;98.35;101734.81;10277342;28;20043;-71
2023/09/15 12:20:48;;;;;;;3.22;1.77;;;;;;;26.36;93.91;101727.91;10281873;28;20062;-71
2023/09/15 12:25:49;;;;;;;4.60;1.83;;;;;;;26.70;89.73;101717.56;10283432;28;20572;-71
2023/09/15 12:30:49;;;;;;;3.45;2.10;;;;;;;27.14;86.82;101695.38;10281383;28;20039;-71
2023/09/15 12:35:50;;;;;;;4.28;1.83;;;;;;;27.92;82.92;101683.22;10291384;28;20038;-72
2023/09/15 12:40:51;;;;;;;6.45;2.42;;;;;;;27.92;81.12;101688.88;10311054;28;20034;-71
2023/09/15 12:45:52;;;;;;;4.55;2.40;;;;;;;27.49;82.80;101693.06;10297332;28;20050;-72
2023/09/15 12:50:54;;;;;;;6.57;2.95;;;;;;;27.33;83.37;101701.38;10313215;28;20491;-73
2023/09/15 12:55:55;;;;;;;5.18;3.25;;;;;;;26.29;84.79;101697.38;10311773;28;20106;-72
2023/09/15 13:00:56;;;;;;;5.13;2.45;;;;;;;25.49;86.64;101681.16;10314077;28;20149;-72
2023/09/15 13:05:56;;;;;;;3.15;2.30;;;;;;;25.92;89.55;101699.06;10287462;28;20289;-72
2023/09/15 13:10:57;;;;;;;5.10;3.20;;;;;;;27.20;84.73;101684.69;10303240;28;20038;-73
2023/09/15 13:15:57;;;;;;;4.60;2.20;;;;;;;27.59;82.29;101669.13;10314860;28;20393;-85
2023/09/15 13:20:57;;;;;;;3.72;2.28;;;;;;;27.29;81.39;101665.69;10310606;28;20375;-76
2023/09/15 13:25:58;;;;;;;4.63;2.70;;;;;;;26.88;81.68;101673.03;10316575;28;20101;-84
2023/09/15 13:31:00;;;;;;;4.65;2.17;;;;;;;27.55;78.82;101657.72;10315907;28;20421;-85
2023/09/15 13:36:02;;;;;;;5.13;2.00;;;;;;;28.56;79.04;101649.63;10313948;28;20043;-84
2023/09/15 13:41:02;;;;;;;3.40;2.30;;;;;;;29.02;78.09;101655.81;10315999;28;20039;-87
2023/09/15 13:46:06;;;;;;;4.88;2.05;;;;;;;29.24;75.36;101654.44;10318076;28;20038;-82
2023/09/15 13:51:06;;;;;;;5.43;2.10;;;;;;;29.03;72.10;101639.66;10320770;28;20081;-83
2023/09/15 13:56:07;;;;;;;4.15;2.05;;;;;;;29.10;72.72;101637.84;10317994;28;20734;-86
2023/09/15 14:01:07;;;;;;;6.93;2.25;;;;;;;29.16;72.61;101639.22;10319631;28;20046;-84
2023/09/15 14:06:08;;;;;;;5.20;2.30;;;;;;;28.94;72.80;101628.44;10318695;28;20046;-86
2023/09/15 14:11:08;;;;;;;4.40;2.00;;;;;;;28.01;74.69;101634.16;10310827;28;20109;-84
2023/09/15 14:16:09;;;;;;;3.10;2.00;;;;;;;28.23;75.32;101636.47;10316086;28;20038;-82
2023/09/15 14:21:09;;;;;;;4.03;1.65;;;;;;;28.71;75.35;101629.06;10321562;28;20042;-84
2023/09/15 14:26:10;;;;;;;4.00;1.92;;;;;;;28.46;73.09;101624.63;10291318;28;20055;-84
2023/09/15 14:31:10;;;;;;;3.80;1.95;;;;;;;27.69;72.73;101600.78;10304717;28;20115;-82
2023/09/15 14:36:11;;;;;;;7.25;2.30;;;;;;;27.58;73.55;101620.22;10320387;28;20046;-71
2023/09/15 14:41:11;;;;;;;5.63;1.90;;;;;;;26.54;75.58;101615.63;10312551;28;20038;-85
2023/09/15 14:46:12;;;;;;;3.30;2.10;;;;;;;25.63;79.00;101623.69;10313232;28;20053;-82
2023/09/15 14:51:12;;;;;;;5.45;2.35;;;;;;;25.06;78.40;101600.34;10321086;28;20445;-82
2023/09/15 14:56:13;;;;;;;4.82;2.47;;;;;;;24.49;82.55;101617.44;10314820;28;20046;-84
2023/09/15 15:01:13;;;;;;;5.55;3.20;;;;;;;24.01;85.97;101616.41;10318230;28;20046;-82
2023/09/15 15:06:16;;;;;;;7.57;2.75;;;;;;;23.56;87.33;101609.00;10312127;28;20073;-86
2023/09/15 15:11:17;;;;;;;3.35;2.33;;;;;;;23.14;89.90;101590.78;10314853;28;20064;-82
2023/09/15 15:16:17;;;;;;;6.38;2.10;;;;;;;23.28;91.12;101615.97;10317017;28;20065;-80
2023/09/15 15:21:17;;;;;;;4.55;2.78;;;;;;;23.30;89.99;101608.03;10316062;28;20042;-81
2023/09/15 15:26:18;;;;;;;4.72;2.55;;;;;;;22.97;89.56;101605.53;10316916;28;20538;-82
2023/09/15 15:31:18;;;;;;;3.33;1.65;;;;;;;22.67;93.36;101605.13;10314128;28;20031;-84
2023/09/15 15:36:20;;;;;;;5.70;2.33;;;;;;;22.46;95.28;101599.19;10306769;28;20070;-84
2023/09/15 15:41:20;;;;;;;2.63;1.80;;;;;;;22.16;97.25;101603.53;10240337;28;20494;-83
2023/09/15 15:46:21;;;;;;;5.60;2.40;;;;;;;21.70;99.31;101602.53;10242309;28;20062;-83
2023/09/15 15:51:21;;;;;;;7.78;3.03;;;;;;;21.36;100.00;101617.75;10244012;28;21524;-80
2023/09/15 15:56:23;;;;;;;4.53;2.10;;;;;;;21.01;100.00;101613.66;10257108;28;20047;-86
2023/09/15 16:01:23;;;;;;;5.22;2.33;;;;;;;20.80;100.00;101609.56;10264289;28;20046;-80
2023/09/15 16:06:24;;;;;;;4.70;2.22;;;;;;;20.54;100.00;101615.53;10264260;28;20050;-82
2023/09/15 16:11:24;;;;;;;4.25;1.88;;;;;;;20.43;100.00;101617.66;10268409;28;20085;-80
2023/09/15 16:16:25;;;;;;;5.22;2.05;;;;;;;20.24;100.00;101611.25;10265042;28;20043;-77
2023/09/15 16:21:26;;;;;;;5.32;2.20;;;;;;;20.11;100.00;101619.25;10281875;28;20031;-81
2023/09/15 16:26:26;;;;;;;4.07;1.95;;;;;;;19.93;100.00;101622.84;10312915;28;20042;-81
2023/09/15 16:31:26;;;;;;;3.15;2.08;;;;;;;19.71;100.00;101627.03;10296525;28;20065;-80
2023/09/15 16:36:27;;;;;;;6.05;2.15;;;;;;;19.51;100.00;101628.06;10300706;28;20530;-81
2023/09/15 16:41:27;;;;;;;5.25;2.17;;;;;;;19.33;100.00;101626.03;10295506;28;20047;-81
2023/09/15 16:46:28;;;;;;;3.63;2.05;;;;;;;19.18;100.00;101623.38;10294334;28;20055;-81
2023/09/15 16:51:29;;;;;;;4.30;2.63;;;;;;;19.02;100.00;101629.13;10290276;28;20038;-82
2023/09/15 16:56:29;;;;;;;4.18;1.95;;;;;;;18.88;100.00;101630.94;10297404;28;20045;-81
2023/09/15 17:01:30;;;;;;;12.02;3.45;;;;;;;18.64;100.00;101626.06;10294264;28;20489;-81
2023/09/15 17:06:30;;;;;;;5.55;2.80;;;;;;;18.51;100.00;101632.28;10264207;28;20046;-79
2023/09/15 17:11:31;;;;;;;3.20;1.95;;;;;;;18.30;100.00;101638.00;10302206;28;20050;-79
2023/09/15 17:16:31;;;;;;;4.07;2.40;;;;;;;17.78;100.00;101586.44;10311356;28;20035;-79
2023/09/15 17:21:32;;;;;;;5.03;2.47;;;;;;;17.85;100.00;101631.53;10323283;28;20049;-80
2023/09/15 17:26:43;;;;;;;3.50;2.25;;;;;;;17.62;100.00;101638.56;10338476;28;20124;-81
2023/09/15 17:31:43;;;;;;;3.22;1.90;;;;;;;17.41;100.00;101646.13;10313802;28;20046;-79
2023/09/15 17:36:44;;;;;;;3.58;2.10;;;;;;;17.16;100.00;101638.66;10323651;28;20559;-81
2023/09/15 17:41:44;;;;;;;4.13;2.55;;;;;;;16.94;100.00;101652.88;10321210;28;20049;-80
2023/09/15 17:46:45;;;;;;;5.35;2.60;;;;;;;16.73;100.00;101650.03;10325465;28;20045;-80
2023/09/15 17:51:46;;;;;;;6.95;2.72;;;;;;;16.56;100.00;101646.69;10321311;28;20042;-80
2023/09/15 17:56:50;;;;;;;4.75;2.75;;;;;;;16.36;100.00;101649.44;10324739;28;20042;-80
2023/09/15 18:01:50;;;;;;;5.50;2.85;;;;;;;15.80;100.00;101584.28;10319623;28;20046;-79
2023/09/15 18:06:51;;;;;;;4.47;3.25;;;;;;;16.01;100.00;101642.66;10320957;28;20034;-80
2023/09/15 18:11:51;;;;;;;5.13;2.88;;;;;;;15.83;100.00;101636.47;10316816;28;20429;-79
2023/09/15 18:16:52;;;;;;;4.30;2.75;;;;;;;15.68;100.00;101637.22;10322225;28;20080;-79
2023/09/15 18:21:54;;;;;;;5.82;3.10;;;;;;;15.53;100.00;101640.75;10317954;28;20039;-79
2023/09/15 18:26:55;;;;;;;4.53;3.67;;;;;;;15.37;100.00;101641.75;10303460;28;20043;-79
2023/09/15 18:31:56;;;;;;;4.82;3.85;;;;;;;15.28;100.00;101643.38;10321824;28;20491;-79
2023/09/15 18:36:58;;;;;;;7.38;3.75;;;;;;;15.09;100.00;101624.38;10324992;28;20058;-79
2023/09/15 18:41:59;;;;;;;5.53;3.88;;;;;;;15.08;100.00;101639.34;10318827;28;20038;-79
2023/09/15 18:46:59;;;;;;;7.32;4.03;;;;;;;14.99;100.00;101643.72;10320559;28;20062;-79
2023/09/15 18:52:00;;;;;;;6.55;4.70;;;;;;;14.90;100.00;101645.28;10312510;28;20062;-79
2023/09/15 18:57:01;;;;;;;7.15;3.85;;;;;;;14.82;100.00;101640.22;10320632;28;20593;-79
2023/09/15 19:02:02;;;;;;;7.38;4.38;;;;;;;14.67;100.00;101638.16;10314838;28;20034;-76
2023/09/15 19:07:03;;;;;;;8.38;4.10;;;;;;;14.66;100.00;101644.84;10319771;28;20050;-74
2023/09/15 19:12:04;;;;;;;7.60;4.93;;;;;;;14.57;100.00;101638.91;10321336;28;20042;-73
2023/09/15 19:17:05;;;;;;;8.02;4.82;;;;;;;14.50;100.00;101646.56;10318221;28;20054;-79
2023/09/15 19:22:05;;;;;;;6.95;4.38;;;;;;;14.42;100.00;101649.81;10319151;28;20031;-79
2023/09/15 19:27:06;;;;;;;6.68;4.68;;;;;;;14.37;100.00;101649.78;10317211;28;20046;-80
2023/09/15 19:32:06;;;;;;;10.15;4.75;;;;;;;14.31;100.00;101644.16;10318520;28;20110;-79
2023/09/15 19:37:07;;;;;;;8.23;4.60;;;;;;;14.26;100.00;101641.34;10324408;28;20046;-80
2023/09/15 19:42:07;;;;;;;8.38;4.93;;;;;;;14.20;100.00;101652.63;10312973;28;20042;-78
2023/09/15 19:47:08;;;;;;;9.02;5.38;;;;;;;14.11;100.00;101655.00;10318569;28;20050;-78
2023/09/15 19:52:09;;;;;;;12.77;5.47;;;;;;;14.08;100.00;101650.00;10315416;28;20057;-79
2023/09/15 19:57:09;;;;;;;7.22;5.38;;;;;;;14.05;100.00;101647.75;10316377;28;20057;-79
2023/09/15 20:02:11;;;;;;;8.40;5.68;;;;;;;13.97;100.00;101643.50;10309725;28;20055;-80
2023/09/15 20:07:12;;;;;;;7.63;5.78;;;;;;;13.95;100.00;101631.00;10307511;28;20438;-77
2023/09/15 20:12:12;;;;;;;10.38;5.97;;;;;;;13.90;100.00;101638.16;10312815;28;20046;-76
2023/09/15 20:17:12;;;;;;;10.90;7.22;;;;;;;13.85;100.00;101643.66;10313609;28;20506;-77
2023/09/15 20:22:13;;;;;;;11.45;7.25;;;;;;;13.81;100.00;101647.16;10318599;28;20038;-77
2023/09/15 20:27:14;;;;;;;11.38;8.15;;;;;;;13.78;100.00;101642.16;10314666;28;20085;-77
2023/09/15 20:32:14;;;;;;;10.38;7.00;;;;;;;13.69;100.00;101636.25;10312260;28;20505;-77
2023/09/15 20:37:14;;;;;;;12.95;6.78;;;;;;;13.73;100.00;101637.41;10293887;28;20571;-83
2023/09/15 20:42:15;;;;;;;8.40;6.28;;;;;;;13.68;100.00;101623.47;10294789;28;20038;-82
2023/09/15 20:47:16;;;;;;;9.98;7.47;;;;;;;13.57;100.00;101610.63;10306000;28;20035;-84
2023/09/15 20:52:16;;;;;;;10.68;7.13;;;;;;;13.22;100.00;101553.69;10308972;28;20094;-79
2023/09/15 20:57:17;;;;;;;10.55;7.47;;;;;;;13.57;100.00;101616.97;10306043;28;20066;-81
2023/09/15 21:02:17;;;;;;;11.68;7.55;;;;;;;13.57;100.00;101613.38;10308634;28;20039;-81
2023/09/15 21:07:17;;;;;;;11.55;7.70;;;;;;;13.56;100.00;101614.47;10312768;28;20047;-79
2023/09/15 21:12:18;;;;;;;11.77;8.73;;;;;;;13.56;100.00;101604.25;10303901;28;20043;-82
2023/09/15 21:17:18;;;;;;;14.50;7.75;;;;;;;13.48;100.00;101585.34;10288734;28;20070;-83
2023/09/15 21:22:19;;;;;;;13.55;8.38;;;;;;;13.66;100.00;101603.53;10319264;28;20038;-82
2023/09/15 21:27:19;;;;;;;15.45;8.00;;;;;;;13.73;100.00;101606.97;10310208;28;20051;-81
2023/09/15 21:32:20;;;;;;;9.65;7.75;;;;;;;13.77;100.00;101604.53;10302385;28;20046;-81
2023/09/15 21:37:20;;;;;;;13.93;8.73;;;;;;;13.79;100.00;101603.16;10313498;28;20058;-82
2023/09/15 21:42:21;;;;;;;19.50;8.90;;;;;;;13.83;100.00;101604.31;10313571;28;20071;-81
2023/09/15 21:47:21;;;;;;;11.50;8.05;;;;;;;13.77;100.00;101585.97;10305881;28;20069;-71
2023/09/15 21:52:23;;;;;;;15.07;9.13;;;;;;;13.91;100.00;101601.09;10319404;28;21001;-81
2023/09/15 21:57:23;;;;;;;10.77;8.30;;;;;;;13.93;100.00;101585.06;10306307;28;20049;-81
2023/09/15 22:02:24;;;;;;;11.70;9.05;;;;;;;13.92;100.00;101593.63;10308798;28;20045;-82
2023/09/15 22:07:25;;;;;;;11.98;8.32;;;;;;;13.88;100.00;101596.06;10301047;28;20161;-80
2023/09/15 22:12:25;;;;;;;12.32;9.45;;;;;;;13.85;100.00;101596.59;10312351;28;20082;-81
2023/09/15 22:17:26;;;;;;;12.13;9.15;;;;;;;13.82;100.00;101605.41;10306597;28;20035;-81
2023/09/15 22:22:27;;;;;;;13.50;9.25;;;;;;;13.87;100.00;101599.94;10302888;28;20035;-81
2023/09/15 22:27:27;;;;;;;12.55;10.05;;;;;;;13.96;100.00;101596.72;10303612;28;20073;-81
2023/09/15 22:32:28;;;;;;;11.73;8.27;;;;;;;14.01;100.00;101591.22;10306995;28;20133;-80
2023/09/15 22:37:28;;;;;;;11.85;9.15;;;;;;;14.06;100.00;101586.56;10294691;28;20042;-81
2023/09/15 22:42:29;;;;;;;17.80;9.43;;;;;;;14.11;100.00;101592.16;10291739;28;20046;-81
2023/09/15 22:47:29;;;;;;;14.38;9.32;;;;;;;14.13;100.00;101589.97;10290293;28;20056;-80